Time;durP1;ratioP1;P1;durP2;ratioP2;P2;SDS_P1;SDS_P2;PMS_P1;PMS_P2;Temp;Humidity;BMP_temperature;BMP_pressure;BME280_temperature;BME280_humidity;BME280_pressure;Samples;Min_cycle;Max_cycle;Signal;HPM_P1;HPM_P2
2023/07/19 00:00:31;;;;;;;5.32;2.20;;;;;;;-141.84;50.38;21257.09;5024796;28;20234;-67
2023/07/19 00:03:00;;;;;;;3.05;2.15;;;;;;;-141.84;50.69;21261.16;5023498;28;20260;-67
2023/07/19 00:05:29;;;;;;;4.72;2.50;;;;;;;-141.84;50.64;21255.03;5016067;28;20622;-67
2023/07/19 00:07:57;;;;;;;2.63;2.15;;;;;;;-141.84;50.83;21204.22;5023873;28;20640;-67
2023/07/19 00:10:26;;;;;;;5.97;2.70;;;;;;;-141.84;51.28;21202.19;5023961;28;20645;-67
2023/07/19 00:12:54;;;;;;;3.78;2.22;;;;;;;-141.84;52.25;21181.84;5022851;28;20469;-67
2023/07/19 00:15:26;;;;;;;3.45;2.42;;;;;;;-141.84;51.35;21192.03;5015642;28;20229;-69
2023/07/19 00:17:54;;;;;;;2.95;2.08;;;;;;;-141.84;51.64;21147.28;5023852;28;20242;-66
2023/07/19 00:20:23;;;;;;;2.50;2.30;;;;;;;-141.84;52.18;21175.75;5016555;28;20609;-67
2023/07/19 00:22:52;;;;;;;3.03;2.45;;;;;;;-141.84;52.11;21171.69;5023437;28;20218;-68
2023/07/19 00:25:20;;;;;;;3.92;2.20;;;;;;;-141.84;52.10;21153.41;5016237;28;20554;-68
2023/07/19 00:27:49;;;;;;;3.60;2.28;;;;;;;-141.84;52.10;21171.69;5001074;28;20319;-67
2023/07/19 00:30:18;;;;;;;3.42;2.78;;;;;;;-141.84;52.41;21147.28;5003937;28;20234;-68
2023/07/19 00:32:48;;;;;;;5.75;2.40;;;;;;;-141.84;52.89;21159.50;5003556;28;20309;-68
2023/07/19 00:35:16;;;;;;;4.03;2.20;;;;;;;-141.84;52.65;21159.50;5014044;28;20301;-67
2023/07/19 00:37:45;;;;;;;3.25;2.25;;;;;;;-141.84;52.86;21139.16;5014399;28;20248;-68
2023/07/19 00:40:13;;;;;;;3.10;2.20;;;;;;;-141.84;53.15;21120.88;5022491;28;20300;-68
2023/07/19 00:42:42;;;;;;;3.08;2.10;;;;;;;-141.84;53.13;21131.03;5022542;28;20233;-67
2023/07/19 00:45:11;;;;;;;2.83;2.20;;;;;;;-141.84;52.89;21139.16;5005873;28;20252;-67
2023/07/19 00:47:40;;;;;;;3.95;2.20;;;;;;;-141.84;53.24;21118.84;4995213;28;20665;-67
2023/07/19 00:50:11;;;;;;;4.65;2.00;;;;;;;-141.84;53.28;21112.72;5015048;28;20721;-67
2023/07/19 00:52:40;;;;;;;2.55;2.30;;;;;;;-141.84;53.27;21116.78;5023183;28;20210;-67
2023/07/19 00:55:10;;;;;;;2.85;2.35;;;;;;;-141.84;53.43;21090.38;5023063;28;20233;-67
2023/07/19 00:57:38;;;;;;;5.53;2.47;;;;;;;-141.84;53.51;21098.50;5015359;28;20676;-67
2023/07/19 01:00:08;;;;;;;2.88;2.38;;;;;;;-141.84;53.42;21114.75;5022986;28;20264;-68
2023/07/19 01:02:37;;;;;;;4.10;2.35;;;;;;;-141.84;53.64;21100.53;5022650;28;20718;-67
2023/07/19 01:05:06;;;;;;;3.65;2.42;;;;;;;-141.84;54.00;21106.63;5022241;28;20234;-67
2023/07/19 01:07:37;;;;;;;3.22;2.17;;;;;;;-141.84;53.51;21094.44;5015493;28;20264;-67
2023/07/19 01:10:07;;;;;;;4.97;2.55;;;;;;;-141.84;54.35;21065.97;5022760;28;20229;-68
2023/07/19 01:12:35;;;;;;;5.95;2.45;;;;;;;-141.84;54.34;21078.16;5022302;28;20789;-67
2023/07/19 01:15:08;;;;;;;2.58;2.17;;;;;;;-141.84;54.46;21037.50;5022820;28;20320;-68
2023/07/19 01:17:37;;;;;;;4.40;2.47;;;;;;;-141.84;55.19;21053.78;5014848;28;20232;-67
2023/07/19 01:20:08;;;;;;;3.28;2.13;;;;;;;-141.84;55.88;21017.19;5022313;28;20212;-68
2023/07/19 01:22:38;;;;;;;5.15;2.45;;;;;;;-141.84;55.12;21041.56;5022125;28;20222;-67
2023/07/19 01:25:07;;;;;;;4.40;2.47;;;;;;;-141.84;54.68;21082.25;5022507;28;20237;-68
2023/07/19 01:27:36;;;;;;;6.53;2.47;;;;;;;-141.84;55.07;21053.78;5014810;28;20230;-67
2023/07/19 01:30:05;;;;;;;2.92;2.42;;;;;;;-141.84;55.36;21045.63;5022660;28;20269;-66
2023/07/19 01:32:34;;;;;;;3.00;2.42;;;;;;;-141.84;55.63;21043.59;5022014;28;20248;-67
2023/07/19 01:35:02;;;;;;;4.07;2.40;;;;;;;-141.84;56.01;21049.72;5022351;28;20252;-68
2023/07/19 01:37:31;;;;;;;3.38;2.55;;;;;;;-141.84;55.90;21031.41;4999337;28;20294;-68
2023/07/19 01:40:02;;;;;;;3.78;2.65;;;;;;;-141.84;55.45;21063.94;5002630;28;20679;-67
2023/07/19 01:42:31;;;;;;;5.35;2.30;;;;;;;-141.84;55.75;21072.06;5003060;28;20313;-67
2023/07/19 01:45:01;;;;;;;3.50;2.80;;;;;;;-141.84;55.79;21033.44;5017918;28;20312;-68
2023/07/19 01:47:29;;;;;;;3.70;2.78;;;;;;;-141.84;55.66;21043.59;5014554;28;20244;-68
2023/07/19 01:49:58;;;;;;;4.05;2.40;;;;;;;-141.84;55.48;21027.34;5013598;28;20234;-68
2023/07/19 01:52:26;;;;;;;5.70;3.08;;;;;;;-141.84;56.15;21063.94;5001041;28;20313;-68
2023/07/19 01:54:55;;;;;;;3.58;2.40;;;;;;;-141.84;56.16;21007.00;5002288;28;20321;-67
2023/07/19 01:57:26;;;;;;;2.50;2.30;;;;;;;-141.84;56.72;21037.50;4995515;28;20313;-68
2023/07/19 01:59:54;;;;;;;3.92;2.22;;;;;;;-141.84;57.00;21004.97;5002689;28;20322;-67
2023/07/19 02:02:23;;;;;;;4.05;2.42;;;;;;;-141.84;57.02;20996.84;5002253;28;20769;-67
2023/07/19 02:04:51;;;;;;;4.55;2.30;;;;;;;-141.84;57.35;20988.72;5002631;28;20213;-68
2023/07/19 02:07:20;;;;;;;3.58;2.50;;;;;;;-141.84;57.06;21009.03;5002193;28;20325;-67
2023/07/19 02:09:48;;;;;;;6.93;2.97;;;;;;;-141.84;57.38;21019.22;5015264;28;20329;-67
2023/07/19 02:12:17;;;;;;;6.45;2.40;;;;;;;-141.84;57.82;20960.25;5022035;28;20342;-67
2023/07/19 02:14:47;;;;;;;3.38;2.53;;;;;;;-141.84;58.20;20978.56;5022229;28;20408;-67
2023/07/19 02:17:15;;;;;;;4.55;2.38;;;;;;;-141.84;58.23;20954.16;5021907;28;20639;-68
2023/07/19 02:19:44;;;;;;;2.53;2.30;;;;;;;-141.84;57.69;21027.34;5005587;28;20305;-68
2023/07/19 02:22:12;;;;;;;3.22;2.60;;;;;;;-141.84;57.48;21033.44;5014849;28;20260;-67
2023/07/19 02:24:43;;;;;;;3.10;2.17;;;;;;;-141.84;58.02;20990.75;5022047;28;20245;-68
2023/07/19 02:27:12;;;;;;;3.17;2.42;;;;;;;-141.84;58.28;20998.88;5021805;28;20258;-67
2023/07/19 02:29:40;;;;;;;3.42;2.45;;;;;;;-141.84;58.11;21027.34;5015218;28;20233;-66
2023/07/19 02:32:10;;;;;;;3.88;2.60;;;;;;;-141.84;58.40;21004.97;5021927;28;20320;-66
2023/07/19 02:34:39;;;;;;;3.45;2.58;;;;;;;-141.84;58.61;21009.03;5023258;28;20729;-67
2023/07/19 02:37:07;;;;;;;3.95;2.28;;;;;;;-141.84;58.50;21023.28;5013560;28;20273;-68
2023/07/19 02:39:36;;;;;;;4.28;2.50;;;;;;;-141.84;58.70;21027.34;4999479;28;20245;-68
2023/07/19 02:42:05;;;;;;;4.43;2.40;;;;;;;-141.84;58.15;21037.50;5006543;28;20613;-67
2023/07/19 02:44:33;;;;;;;4.55;2.38;;;;;;;-141.84;58.42;21004.97;5006017;28;20710;-68
2023/07/19 02:47:02;;;;;;;4.05;2.50;;;;;;;-141.84;58.51;21025.31;5005752;28;20249;-67
2023/07/19 02:49:32;;;;;;;2.95;2.38;;;;;;;-141.84;58.35;21029.38;5005559;28;20613;-67
2023/07/19 02:52:00;;;;;;;4.88;2.50;;;;;;;-141.84;58.80;21013.13;5025755;28;20360;-68
2023/07/19 02:54:29;;;;;;;6.30;2.25;;;;;;;-141.84;58.86;21000.91;5025182;28;20722;-67
2023/07/19 02:56:57;;;;;;;3.03;2.22;;;;;;;-141.84;59.70;20976.53;5025545;28;20260;-68
2023/07/19 02:59:26;;;;;;;5.05;2.30;;;;;;;-141.84;59.66;21002.94;5017555;28;20234;-67
2023/07/19 03:01:54;;;;;;;4.90;2.50;;;;;;;-141.84;60.31;20954.16;5026948;28;20198;-66
2023/07/19 03:04:23;;;;;;;3.22;2.00;;;;;;;-141.84;59.89;20974.50;5025312;28;20265;-68
2023/07/19 03:06:52;;;;;;;6.63;2.58;;;;;;;-141.84;59.41;21004.97;5025011;28;20229;-68
2023/07/19 03:09:21;;;;;;;3.03;2.20;;;;;;;-141.84;59.27;21025.31;5024788;28;20258;-68
2023/07/19 03:11:50;;;;;;;3.15;2.33;;;;;;;-141.84;59.32;20980.59;5024532;28;20234;-68
2023/07/19 03:14:18;;;;;;;4.50;2.50;;;;;;;-141.84;59.78;20968.38;5024885;28;20229;-68
2023/07/19 03:16:47;;;;;;;4.93;2.92;;;;;;;-141.84;60.12;20980.59;5025591;28;20297;-68
2023/07/19 03:19:15;;;;;;;5.03;2.70;;;;;;;-141.84;60.89;20887.06;5020374;28;20231;-68
2023/07/19 03:21:44;;;;;;;5.30;2.60;;;;;;;-141.84;61.14;20944.00;5007210;28;20236;-68
2023/07/19 03:24:13;;;;;;;4.05;2.60;;;;;;;-141.84;61.36;20895.19;5024507;28;20641;-67
2023/07/19 03:26:42;;;;;;;4.43;2.83;;;;;;;-141.84;61.22;20897.25;5025212;28;20260;-67
2023/07/19 03:29:11;;;;;;;3.58;2.47;;;;;;;-141.84;60.97;20939.94;5024436;28;20645;-68
2023/07/19 03:31:40;;;;;;;5.78;2.80;;;;;;;-141.84;60.42;20952.13;5016935;28;20214;-70
2023/07/19 03:34:09;;;;;;;3.85;2.38;;;;;;;-141.84;60.07;20962.28;5009489;28;20262;-68
2023/07/19 03:36:37;;;;;;;6.03;2.40;;;;;;;-141.84;59.72;20984.66;5024223;28;20226;-67
2023/07/19 03:39:06;;;;;;;4.38;2.45;;;;;;;-141.84;59.84;20972.47;5025011;28;20301;-68
2023/07/19 03:41:36;;;;;;;3.97;2.17;;;;;;;-141.84;59.38;20968.38;5017098;28;20280;-69
2023/07/19 03:44:05;;;;;;;6.57;2.65;;;;;;;-141.84;58.70;21017.19;5024741;28;20198;-67
2023/07/19 03:46:33;;;;;;;6.03;2.42;;;;;;;-141.84;59.25;20990.75;5023591;28;20671;-68
2023/07/19 03:49:02;;;;;;;9.32;2.85;;;;;;;-141.84;59.08;21004.97;5020993;28;20242;-68
2023/07/19 03:51:30;;;;;;;5.60;2.60;;;;;;;-141.84;57.71;21041.56;4996631;28;20317;-68
2023/07/19 03:53:58;;;;;;;4.55;2.50;;;;;;;-141.84;57.92;21059.88;5004208;28;20254;-68
2023/07/19 03:56:27;;;;;;;5.10;2.42;;;;;;;-141.84;57.95;21053.78;5004059;28;20284;-68
2023/07/19 03:58:57;;;;;;;4.30;2.60;;;;;;;-141.84;58.78;20990.75;5004750;28;20277;-67
2023/07/19 04:01:25;;;;;;;5.40;2.35;;;;;;;-141.84;57.74;21045.63;4996549;28;20258;-68
2023/07/19 04:03:54;;;;;;;4.05;2.10;;;;;;;-141.84;57.90;21025.31;5003615;28;20710;-68
2023/07/19 04:06:22;;;;;;;7.03;2.58;;;;;;;-141.84;58.63;21051.75;5003848;28;20264;-67
2023/07/19 04:08:51;;;;;;;4.90;2.30;;;;;;;-141.84;59.08;21007.00;5011461;28;20317;-67
2023/07/19 04:11:19;;;;;;;6.22;2.05;;;;;;;-141.84;59.27;21017.19;5023645;28;20297;-67
2023/07/19 04:13:49;;;;;;;6.07;2.28;;;;;;;-141.84;59.87;21021.25;5020518;28;20210;-68
2023/07/19 04:16:19;;;;;;;5.63;2.53;;;;;;;-141.84;59.62;20986.69;5023109;28;20329;-67
2023/07/19 04:18:47;;;;;;;5.80;2.72;;;;;;;-141.84;59.33;21035.47;5023023;28;20230;-67
2023/07/19 04:21:16;;;;;;;6.22;3.03;;;;;;;-141.84;59.15;21037.50;5008707;28;20253;-68
2023/07/19 04:23:44;;;;;;;5.35;2.53;;;;;;;-141.84;59.68;21043.59;5015449;28;20321;-67
2023/07/19 04:26:13;;;;;;;6.80;2.90;;;;;;;-141.84;58.59;21104.59;5023151;28;20697;-68
2023/07/19 04:28:41;;;;;;;4.63;2.70;;;;;;;-141.84;59.20;21072.06;5020819;28;20678;-68
2023/07/19 04:31:10;;;;;;;3.75;2.20;;;;;;;-141.84;60.02;21041.56;5003814;28;20649;-67
2023/07/19 04:33:39;;;;;;;8.77;2.75;;;;;;;-141.84;59.34;21053.78;4996580;28;20754;-68
2023/07/19 04:36:15;;;;;;;8.02;2.92;;;;;;;-141.84;59.42;21061.91;5021040;28;20230;-67
2023/07/19 04:38:44;;;;;;;6.88;3.35;;;;;;;-141.84;58.88;21129.00;5023339;28;20226;-67
2023/07/19 04:41:12;;;;;;;8.27;2.70;;;;;;;-141.84;57.58;21210.31;5022928;28;20217;-68
2023/07/19 04:43:41;;;;;;;6.57;2.50;;;;;;;-141.84;59.03;21133.06;5016414;28;20743;-67
2023/07/19 04:46:09;;;;;;;4.93;2.80;;;;;;;-141.84;59.08;21139.16;5023015;28;20335;-68
2023/07/19 04:48:39;;;;;;;6.72;2.90;;;;;;;-141.84;57.81;21165.59;5023097;28;20232;-68
2023/07/19 04:51:08;;;;;;;5.43;2.50;;;;;;;-141.84;58.28;21159.50;5019134;28;20226;-68
2023/07/19 04:53:36;;;;;;;3.95;2.42;;;;;;;-141.84;57.29;21257.09;4995683;28;20321;-67
2023/07/19 04:56:05;;;;;;;4.25;2.45;;;;;;;-141.84;57.03;21244.88;5003392;28;20222;-68
2023/07/19 04:58:33;;;;;;;7.13;3.10;;;;;;;-141.84;55.95;21326.22;5003390;28;20637;-67
2023/07/19 05:01:05;;;;;;;4.38;2.30;;;;;;;-141.84;52.96;21598.66;5003772;28;20238;-68
2023/07/19 05:03:33;;;;;;;5.03;2.28;;;;;;;-141.84;47.85;21997.19;4995978;28;20234;-68
2023/07/19 05:06:03;;;;;;;4.97;2.30;;;;;;;-141.84;45.00;22269.69;5003786;28;20234;-67
2023/07/19 05:08:32;;;;;;;4.63;2.58;;;;;;;-141.84;41.04;22757.81;5008173;28;20617;-68
2023/07/19 05:11:00;;;;;;;7.40;2.50;;;;;;;-141.84;39.53;22928.66;5023116;28;20293;-66
2023/07/19 05:13:29;;;;;;;5.47;2.63;;;;;;;-141.84;38.34;23197.16;5015437;28;20217;-67
2023/07/19 05:15:57;;;;;;;5.72;2.65;;;;;;;-141.84;37.74;23288.69;5022586;28;20605;-66
2023/07/19 05:18:26;;;;;;;8.05;3.00;;;;;;;-141.84;36.46;23561.28;5022756;28;20308;-68
2023/07/19 05:20:55;;;;;;;4.22;2.30;;;;;;;-141.84;36.94;23449.38;5006558;28;20259;-68
2023/07/19 05:23:25;;;;;;;7.05;2.83;;;;;;;-141.84;36.45;23455.50;5015832;28;20309;-66
2023/07/19 05:25:53;;;;;;;4.30;2.70;;;;;;;-141.84;35.66;23638.59;5011655;28;20309;-67
2023/07/19 05:28:21;;;;;;;5.45;2.60;;;;;;;-141.84;36.08;23551.09;5002220;28;20310;-68
2023/07/19 05:30:50;;;;;;;5.00;2.75;;;;;;;-141.84;35.43;23571.44;5003204;28;20301;-68
2023/07/19 05:33:18;;;;;;;6.82;2.90;;;;;;;-141.84;36.06;23402.59;5002895;28;20266;-67
2023/07/19 05:35:49;;;;;;;7.93;2.63;;;;;;;-141.84;37.87;23001.88;5011641;28;20237;-68
2023/07/19 05:38:17;;;;;;;9.32;2.60;;;;;;;-141.84;39.45;22747.63;5022548;28;20214;-67
2023/07/19 05:40:47;;;;;;;5.88;2.53;;;;;;;-141.84;40.75;22511.72;5022631;28;20214;-67
2023/07/19 05:43:16;;;;;;;13.27;3.15;;;;;;;-141.84;41.99;22416.13;5021920;28;20317;-68
2023/07/19 05:45:45;;;;;;;6.55;2.78;;;;;;;-141.84;43.15;22275.81;5015446;28;20257;-68
2023/07/19 05:48:14;;;;;;;5.10;2.92;;;;;;;-141.84;43.49;22200.56;5011381;28;20245;-66
2023/07/19 05:50:42;;;;;;;9.77;3.25;;;;;;;-141.84;44.02;22109.03;5018108;28;20237;-67
2023/07/19 05:53:11;;;;;;;6.78;2.75;;;;;;;-141.84;44.26;22129.38;5022278;28;20237;-67
2023/07/19 05:55:40;;;;;;;8.48;2.80;;;;;;;-141.84;44.52;22084.66;5014868;28;20210;-67
2023/07/19 05:58:10;;;;;;;6.68;2.45;;;;;;;-141.84;44.62;22086.69;5021877;28;20784;-68
2023/07/19 06:00:40;;;;;;;8.75;3.00;;;;;;;-141.84;44.73;22052.09;5022385;28;20304;-67
2023/07/19 06:03:08;;;;;;;7.43;2.78;;;;;;;-141.84;44.65;22090.75;5022183;28;20222;-67
2023/07/19 06:05:38;;;;;;;4.85;2.40;;;;;;;-141.84;44.35;22086.69;5014644;28;20256;-66
2023/07/19 06:08:06;;;;;;;5.10;2.55;;;;;;;-141.84;44.16;22125.31;5022150;28;20658;-67
2023/07/19 06:10:52;;;;;;;11.63;2.95;;;;;;;-141.84;44.14;22119.22;5025382;28;20229;-67
2023/07/19 06:13:22;;;;;;;8.35;2.85;;;;;;;-141.84;43.82;22131.41;5025692;28;20229;-69
2023/07/19 06:15:51;;;;;;;5.00;2.30;;;;;;;-141.84;43.64;22163.94;5026131;28;20308;-67
2023/07/19 06:18:19;;;;;;;3.85;2.40;;;;;;;-141.84;43.25;22131.41;5013942;28;20234;-67
2023/07/19 06:20:48;;;;;;;4.95;2.47;;;;;;;-141.84;42.80;22196.50;5021262;28;20594;-67
2023/07/19 06:23:16;;;;;;;6.78;2.58;;;;;;;-141.84;42.25;22245.28;5005894;28;20249;-67
2023/07/19 06:25:47;;;;;;;7.32;2.38;;;;;;;-141.84;41.79;22283.94;4999107;28;20210;-66
2023/07/19 06:28:16;;;;;;;4.13;2.47;;;;;;;-141.84;41.45;22353.09;5005683;28;20262;-68
2023/07/19 06:30:46;;;;;;;7.82;2.42;;;;;;;-141.84;41.36;22361.22;5005829;28;20238;-67
2023/07/19 06:33:14;;;;;;;5.05;2.50;;;;;;;-141.84;41.04;22436.47;5006211;28;20317;-69
2023/07/19 06:35:44;;;;;;;4.70;2.55;;;;;;;-141.84;40.17;22568.66;5012886;28;24278;-68
2023/07/19 06:38:13;;;;;;;5.47;2.22;;;;;;;-141.84;39.59;22552.38;5025149;28;20244;-67
2023/07/19 06:40:41;;;;;;;4.22;2.63;;;;;;;-141.84;39.86;22558.50;5025524;28;20205;-66
2023/07/19 06:43:10;;;;;;;5.65;2.05;;;;;;;-141.84;39.39;22554.41;5024293;28;20237;-67
2023/07/19 06:45:38;;;;;;;4.28;2.10;;;;;;;-141.84;39.18;22525.94;4998036;28;20349;-65
2023/07/19 06:48:08;;;;;;;7.18;2.70;;;;;;;-141.84;39.99;22477.13;5005282;28;20258;-67
2023/07/19 06:50:37;;;;;;;4.45;2.05;;;;;;;-141.84;40.28;22432.41;5020548;28;20329;-67
2023/07/19 06:53:06;;;;;;;3.42;2.08;;;;;;;-141.84;40.22;22395.78;5024921;28;20264;-66
2023/07/19 06:55:34;;;;;;;4.55;2.30;;;;;;;-141.84;40.24;22450.69;5017752;28;20294;-67
2023/07/19 06:58:03;;;;;;;4.15;2.80;;;;;;;-141.84;40.82;22361.22;5024963;28;20317;-67
2023/07/19 07:00:31;;;;;;;6.20;2.60;;;;;;;-141.84;41.05;22342.91;5025682;28;20279;-67
2023/07/19 07:03:00;;;;;;;4.28;2.28;;;;;;;-141.84;40.93;22340.88;5024875;28;20245;-67
2023/07/19 07:05:30;;;;;;;5.03;2.20;;;;;;;-141.84;40.86;22416.13;5017183;28;20228;-66
2023/07/19 07:07:59;;;;;;;8.57;2.38;;;;;;;-141.84;40.40;22428.31;5025052;28;20626;-66
2023/07/19 07:10:27;;;;;;;5.45;2.30;;;;;;;-141.84;40.43;22491.38;5024483;28;20645;-67
2023/07/19 07:12:56;;;;;;;3.70;2.30;;;;;;;-141.84;40.01;22558.50;5024710;28;20320;-66
2023/07/19 07:15:24;;;;;;;3.47;2.03;;;;;;;-141.84;39.61;22566.63;4999070;28;20722;-66
2023/07/19 07:17:53;;;;;;;6.53;2.13;;;;;;;-141.84;38.96;22623.56;5013210;28;20789;-67
2023/07/19 07:20:21;;;;;;;6.03;2.80;;;;;;;-141.84;38.56;22654.06;5024779;28;20228;-67
2023/07/19 07:22:52;;;;;;;8.05;4.10;;;;;;;-141.84;39.38;22568.66;5025629;28;20692;-67
2023/07/19 07:25:21;;;;;;;3.45;2.60;;;;;;;-141.84;39.73;22507.66;5023326;28;20233;-67
2023/07/19 07:27:50;;;;;;;7.50;2.67;;;;;;;-141.84;39.73;22505.59;5024284;28;20257;-67
2023/07/19 07:30:19;;;;;;;4.75;1.92;;;;;;;-141.84;39.11;22560.53;5024284;28;20230;-66
2023/07/19 07:32:49;;;;;;;7.68;2.20;;;;;;;-141.84;38.50;22631.72;5024589;28;20257;-67
2023/07/19 07:35:17;;;;;;;4.28;2.10;;;;;;;-141.84;37.84;22806.63;5023665;28;20847;-67
2023/07/19 07:37:46;;;;;;;4.32;2.20;;;;;;;-141.84;37.45;22887.97;5016775;28;20297;-65
2023/07/19 07:40:16;;;;;;;4.88;2.20;;;;;;;-141.84;37.55;22967.31;5016419;28;20342;-59
2023/07/19 07:42:45;;;;;;;6.45;2.00;;;;;;;-141.84;37.18;23050.69;5004382;28;20227;-60
2023/07/19 07:45:13;;;;;;;10.52;2.30;;;;;;;-141.84;36.35;23197.16;5021739;28;20225;-60
2023/07/19 07:47:42;;;;;;;4.88;2.10;;;;;;;-141.84;35.43;23311.06;5016833;28;20305;-59
2023/07/19 07:50:11;;;;;;;3.42;2.15;;;;;;;-141.84;35.04;23331.41;5011627;28;20710;-60
2023/07/19 07:52:40;;;;;;;4.85;2.10;;;;;;;-141.84;34.92;23323.28;5004689;28;20203;-60
2023/07/19 07:55:09;;;;;;;4.85;2.13;;;;;;;-141.84;35.84;23264.28;5003529;28;20705;-60
2023/07/19 07:57:39;;;;;;;4.68;2.05;;;;;;;-141.84;36.51;23197.16;4996395;28;20309;-59
2023/07/19 08:00:10;;;;;;;6.18;2.25;;;;;;;-141.84;35.20;23296.81;5004330;28;20230;-59
2023/07/19 08:02:39;;;;;;;4.80;2.00;;;;;;;-141.84;35.36;23264.28;5004037;28;20230;-61
2023/07/19 08:05:09;;;;;;;3.47;2.08;;;;;;;-141.84;34.43;23298.84;5004245;28;20294;-60
2023/07/19 08:07:37;;;;;;;4.30;2.05;;;;;;;-141.84;34.31;23347.69;4997497;28;20213;-60
2023/07/19 08:10:06;;;;;;;5.57;2.35;;;;;;;-141.84;34.13;23392.44;5015801;28;20683;-60
2023/07/19 08:12:35;;;;;;;3.55;2.00;;;;;;;-141.84;34.43;23445.31;5003807;28;20313;-60
2023/07/19 08:15:06;;;;;;;5.03;1.88;;;;;;;-141.84;33.70;23526.69;5004733;28;20269;-60
2023/07/19 08:17:35;;;;;;;6.63;2.13;;;;;;;-141.84;33.96;23522.63;5001455;28;20312;-59
2023/07/19 08:20:05;;;;;;;6.00;2.15;;;;;;;-141.84;34.05;23542.97;5024199;28;20210;-60
2023/07/19 08:22:35;;;;;;;7.38;2.30;;;;;;;-141.84;33.55;23551.09;5024179;28;20202;-60
2023/07/19 08:25:04;;;;;;;6.68;2.40;;;;;;;-141.84;34.11;23410.75;5023546;28;20461;-60
2023/07/19 08:27:52;;;;;;;6.05;2.20;;;;;;;-141.84;33.57;23469.72;5023421;28;20256;-60
2023/07/19 08:30:23;;;;;;;5.20;2.20;;;;;;;-141.84;33.41;23384.28;5023143;28;20284;-59
2023/07/19 08:32:52;;;;;;;4.00;2.10;;;;;;;-141.84;33.23;23400.56;5023014;28;20225;-60
2023/07/19 08:35:20;;;;;;;3.95;2.10;;;;;;;-141.84;33.30;23441.25;5023451;28;20745;-59
2023/07/19 08:37:49;;;;;;;4.47;2.03;;;;;;;-141.84;33.11;23368.03;5021590;28;20241;-60
2023/07/19 08:40:18;;;;;;;2.50;2.00;;;;;;;-141.84;33.18;23272.41;5022733;28;20272;-59
2023/07/19 08:42:46;;;;;;;5.05;2.00;;;;;;;-141.84;33.20;23363.94;5023124;28;20237;-59
2023/07/19 08:45:15;;;;;;;4.05;2.13;;;;;;;-141.84;33.38;23264.28;5022732;28;20308;-60
2023/07/19 08:47:47;;;;;;;2.53;1.92;;;;;;;-141.84;33.56;23278.50;5015635;28;20537;-59
2023/07/19 08:50:16;;;;;;;6.75;2.17;;;;;;;-141.84;33.43;23278.50;5010191;28;20233;-60
2023/07/19 08:52:45;;;;;;;5.88;2.00;;;;;;;-141.84;33.88;23278.50;5003740;28;20262;-60
2023/07/19 08:55:14;;;;;;;2.85;2.08;;;;;;;-141.84;33.84;23203.25;5003156;28;20681;-59
2023/07/19 08:57:44;;;;;;;5.55;2.42;;;;;;;-141.84;33.86;23315.13;4995678;28;20754;-59
2023/07/19 09:00:17;;;;;;;4.63;2.45;;;;;;;-141.84;33.31;23477.88;5003109;28;20234;-60
2023/07/19 09:02:47;;;;;;;3.58;2.10;;;;;;;-141.84;31.54;23726.06;5003395;28;20231;-59
2023/07/19 09:05:16;;;;;;;4.22;1.88;;;;;;;-141.84;31.46;23884.75;5003154;28;20210;-60
2023/07/19 09:07:48;;;;;;;2.55;2.15;;;;;;;-141.84;31.01;23882.72;4995831;28;20235;-60
2023/07/19 09:10:19;;;;;;;4.25;1.90;;;;;;;-141.84;30.95;23962.06;5014585;28;20657;-60
2023/07/19 09:12:47;;;;;;;4.03;2.00;;;;;;;-141.84;31.18;24006.81;5002633;28;20325;-59
2023/07/19 09:15:16;;;;;;;2.95;2.17;;;;;;;-141.84;31.35;23951.88;5019080;28;20766;-59
2023/07/19 09:17:47;;;;;;;5.93;2.15;;;;;;;-141.84;31.38;23917.28;5015170;28;20371;-59
2023/07/19 09:20:17;;;;;;;5.97;2.25;;;;;;;-141.84;32.05;23835.91;5023117;28;20272;-59
2023/07/19 09:22:46;;;;;;;4.95;2.33;;;;;;;-141.84;31.80;23762.69;5023195;28;20210;-60
2023/07/19 09:25:15;;;;;;;4.40;2.15;;;;;;;-141.84;32.58;23703.69;5022346;28;20700;-60
2023/07/19 09:27:44;;;;;;;3.83;2.28;;;;;;;-141.84;32.52;23654.84;5014712;28;21251;-60
2023/07/19 09:30:14;;;;;;;2.30;2.10;;;;;;;-141.84;32.96;23681.31;5022097;28;20663;-60
2023/07/19 09:32:43;;;;;;;3.63;2.00;;;;;;;-141.84;32.12;23858.28;5022344;28;20237;-59
2023/07/19 09:35:13;;;;;;;8.35;2.33;;;;;;;-141.84;32.03;23890.84;5022272;28;20213;-61
2023/07/19 09:37:42;;;;;;;4.28;2.10;;;;;;;-141.84;32.26;23907.13;5015452;28;20706;-60
2023/07/19 09:40:11;;;;;;;4.22;2.40;;;;;;;-141.84;32.07;23882.72;5022429;28;20781;-58
2023/07/19 09:42:42;;;;;;;4.95;2.50;;;;;;;-141.84;31.90;23862.38;5021498;28;20234;-60
2023/07/19 09:45:12;;;;;;;5.22;2.15;;;;;;;-141.84;31.94;23901.03;5024124;28;20253;-60
2023/07/19 09:47:42;;;;;;;3.35;2.05;;;;;;;-141.84;32.13;23823.72;5019158;28;20257;-60
2023/07/19 09:50:13;;;;;;;3.30;2.35;;;;;;;-141.84;31.95;23738.25;5014626;28;20241;-62
2023/07/19 09:52:43;;;;;;;7.20;2.58;;;;;;;-141.84;32.05;23626.38;5007399;28;20321;-60
2023/07/19 09:55:13;;;;;;;4.15;2.13;;;;;;;-141.84;32.51;23604.00;5006032;28;20261;-59
2023/07/19 09:57:48;;;;;;;7.25;2.55;;;;;;;-141.84;33.18;23630.44;4998477;28;20241;-59
2023/07/19 10:00:17;;;;;;;3.65;2.20;;;;;;;-141.84;32.70;23636.53;5006967;28;20240;-61
2023/07/19 10:02:46;;;;;;;3.80;2.42;;;;;;;-141.84;32.62;23646.72;5006498;28;20230;-59
2023/07/19 10:05:16;;;;;;;4.45;2.25;;;;;;;-141.84;32.46;23665.03;5006312;28;20294;-60
2023/07/19 10:07:50;;;;;;;5.38;2.45;;;;;;;-141.84;33.12;23571.44;5000378;28;20293;-60
2023/07/19 10:10:20;;;;;;;3.03;2.30;;;;;;;-141.84;32.75;23612.13;5026680;28;20225;-59
2023/07/19 10:12:50;;;;;;;3.95;2.20;;;;;;;-141.84;32.78;23628.41;5025258;28;20249;-60
2023/07/19 10:15:19;;;;;;;2.83;1.92;;;;;;;-141.84;31.68;23648.75;5026504;28;20233;-60
2023/07/19 10:17:59;;;;;;;3.13;2.10;;;;;;;-141.84;31.52;23632.47;5025688;28;20233;-59
2023/07/19 10:20:32;;;;;;;4.22;2.10;;;;;;;-141.84;32.10;23577.56;5026236;28;20249;-60
2023/07/19 10:23:04;;;;;;;3.05;2.30;;;;;;;-141.84;31.94;23624.34;5005733;28;20214;-60
2023/07/19 10:25:35;;;;;;;4.47;2.08;;;;;;;-141.84;31.83;23658.94;4998722;28;20207;-60
2023/07/19 10:28:07;;;;;;;2.92;1.88;;;;;;;-141.84;31.61;23622.31;5005790;28;20666;-60
2023/07/19 10:30:56;;;;;;;3.33;1.85;;;;;;;-141.84;31.74;23644.69;5006181;28;20262;-61
2023/07/19 10:33:29;;;;;;;3.55;1.80;;;;;;;-141.84;32.08;23644.69;4998731;28;20714;-59
2023/07/19 10:36:05;;;;;;;3.28;1.85;;;;;;;-141.84;31.61;23669.09;5021770;28;20221;-60
2023/07/19 10:38:34;;;;;;;4.45;2.00;;;;;;;-141.84;31.50;23683.34;5025798;28;20260;-62
2023/07/19 10:41:04;;;;;;;2.10;1.60;;;;;;;-141.84;31.37;23673.16;5025677;28;20250;-61
2023/07/19 10:43:34;;;;;;;4.57;1.80;;;;;;;-141.84;31.35;23719.97;5017784;28;20240;-59
2023/07/19 10:46:18;;;;;;;3.47;1.95;;;;;;;-141.84;31.60;23636.53;5024985;28;20300;-59
2023/07/19 10:48:51;;;;;;;3.53;1.92;;;;;;;-141.84;31.82;23536.88;5023631;28;20756;-59
2023/07/19 10:51:22;;;;;;;3.42;1.95;;;;;;;-141.84;31.69;23577.56;5005488;28;20288;-60
2023/07/19 10:53:56;;;;;;;5.28;2.20;;;;;;;-141.84;31.82;23536.88;5005192;28;20227;-60
2023/07/19 10:56:27;;;;;;;7.18;2.53;;;;;;;-141.84;32.44;23587.72;5005373;28;20248;-60
2023/07/19 10:58:59;;;;;;;2.38;1.85;;;;;;;-141.84;31.81;23679.28;5004761;28;20238;-59
2023/07/19 11:01:29;;;;;;;5.90;3.20;;;;;;;-141.84;31.91;23740.31;4996868;28;20289;-60
2023/07/19 11:04:03;;;;;;;4.15;2.00;;;;;;;-141.84;31.23;23864.41;5006072;28;20258;-60
2023/07/19 11:06:34;;;;;;;5.22;1.98;;;;;;;-141.84;30.54;23949.84;5011457;28;20237;-60
2023/07/19 11:09:06;;;;;;;4.18;1.63;;;;;;;-141.84;30.51;24067.84;5024914;28;20233;-60
2023/07/19 11:11:39;;;;;;;4.22;2.00;;;;;;;-141.84;30.45;24189.94;5017821;28;20241;-60
2023/07/19 11:14:08;;;;;;;2.60;1.67;;;;;;;-141.84;30.10;24118.72;5024459;28;20312;-62
2023/07/19 11:16:36;;;;;;;3.45;1.90;;;;;;;-141.84;29.63;24194.00;5025093;28;20206;-62
2023/07/19 11:19:05;;;;;;;3.60;1.80;;;;;;;-141.84;30.04;24139.06;5021401;28;20231;-60
2023/07/19 11:21:35;;;;;;;4.47;1.90;;;;;;;-141.84;29.96;24096.34;5004629;28;20225;-60
2023/07/19 11:24:05;;;;;;;2.75;1.80;;;;;;;-141.84;30.13;24063.78;5024307;28;20401;-59
2023/07/19 11:26:33;;;;;;;2.65;2.00;;;;;;;-141.84;30.12;24047.50;5024363;28;20226;-60